Time;durP1;ratioP1;P1;durP2;ratioP2;P2;SDS_P1;SDS_P2;PMS_P1;PMS_P2;Temp;Humidity;BMP_temperature;BMP_pressure;BME280_temperature;BME280_humidity;BME280_pressure;Samples;Min_cycle;Max_cycle;Signal;HPM_P1;HPM_P2
2022/09/29 00:02:21;;;;;;;18.35;6.30;;;;;;;;;;5063579;28;20626;-67
2022/09/29 00:04:46;;;;;;;16.70;7.30;;;;;;;;;;5053278;28;20029;-65
2022/09/29 00:07:11;;;;;;;12.00;6.27;;;;;;;;;;5060811;28;20017;-67
2022/09/29 00:09:37;;;;;;;12.37;7.07;;;;;;;;;;5052841;28;20270;-66
2022/09/29 00:12:02;;;;;;;17.35;7.25;;;;;;;;;;5056194;28;20290;-67
2022/09/29 00:14:27;;;;;;;15.88;7.63;;;;;;;;;;5056364;28;20020;-67
2022/09/29 00:16:52;;;;;;;14.80;6.82;;;;;;;;;;5063319;28;20025;-67
2022/09/29 00:19:18;;;;;;;14.05;6.88;;;;;;;;;;5060126;28;20027;-67
2022/09/29 00:21:43;;;;;;;12.98;6.15;;;;;;;;;;5053399;28;20017;-66
2022/09/29 00:24:08;;;;;;;12.32;6.60;;;;;;;;;;5057034;28;20042;-66
2022/09/29 00:26:34;;;;;;;18.00;7.17;;;;;;;;;;5054937;28;20338;-67
2022/09/29 00:28:59;;;;;;;10.93;6.47;;;;;;;;;;5055652;28;20283;-66
2022/09/29 00:31:26;;;;;;;10.50;6.05;;;;;;;;;;5049338;28;20026;-67
2022/09/29 00:33:51;;;;;;;11.68;6.18;;;;;;;;;;5056362;28;20020;-65
2022/09/29 00:36:18;;;;;;;12.55;6.75;;;;;;;;;;5045361;28;20021;-67
2022/09/29 00:38:45;;;;;;;14.57;6.60;;;;;;;;;;5056602;28;20067;-67
2022/09/29 00:41:16;;;;;;;14.00;6.60;;;;;;;;;;5052055;28;20446;-67
2022/09/29 00:43:44;;;;;;;22.52;7.03;;;;;;;;;;5051297;28;20013;-66
2022/09/29 00:46:11;;;;;;;37.35;7.10;;;;;;;;;;5052192;28;20017;-66
2022/09/29 00:48:37;;;;;;;13.55;6.65;;;;;;;;;;5062124;28;20045;-66
2022/09/29 00:51:02;;;;;;;11.48;6.38;;;;;;;;;;5059802;28;20036;-66
2022/09/29 00:53:28;;;;;;;13.73;6.40;;;;;;;;;;5057099;28;20303;-66
2022/09/29 00:56:04;;;;;;;12.02;6.70;;;;;;;;;;5057573;28;20020;-66
2022/09/29 00:58:33;;;;;;;10.82;6.30;;;;;;;;;;5048791;28;20366;-66
2022/09/29 01:00:59;;;;;;;14.05;6.53;;;;;;;;;;5053802;28;20060;-66
2022/09/29 01:03:26;;;;;;;11.70;6.63;;;;;;;;;;5062929;28;20519;-66
2022/09/29 01:05:55;;;;;;;14.02;6.20;;;;;;;;;;5062169;28;20029;-66
2022/09/29 01:08:27;;;;;;;17.63;6.60;;;;;;;;;;5059277;28;20025;-67
2022/09/29 01:10:52;;;;;;;13.52;7.15;;;;;;;;;;5056117;28;20061;-66
2022/09/29 01:13:18;;;;;;;13.77;6.22;;;;;;;;;;5060273;28;20525;-66
2022/09/29 01:15:43;;;;;;;14.70;6.43;;;;;;;;;;5061087;28;20021;-66
2022/09/29 01:18:08;;;;;;;11.17;6.13;;;;;;;;;;5053633;28;20067;-66
2022/09/29 01:20:37;;;;;;;11.25;6.47;;;;;;;;;;5061371;28;20278;-66
2022/09/29 01:23:17;;;;;;;12.77;6.45;;;;;;;;;;5066790;28;20044;-66
2022/09/29 01:26:01;;;;;;;15.85;7.00;;;;;;;;;;5055587;28;20044;-66
2022/09/29 01:28:50;;;;;;;10.50;5.97;;;;;;;;;;5055415;28;20032;-67
2022/09/29 01:31:21;;;;;;;12.95;6.38;;;;;;;;;;5056001;28;20060;-67
2022/09/29 01:34:01;;;;;;;9.80;5.78;;;;;;;;;;5057805;28;20021;-66
2022/09/29 01:36:37;;;;;;;11.98;5.85;;;;;;;;;;5065687;28;20024;-66
2022/09/29 01:39:21;;;;;;;9.40;6.55;;;;;;;;;;5058071;28;20017;-66
2022/09/29 01:41:52;;;;;;;11.52;5.72;;;;;;;;;;5053810;28;20378;-66
2022/09/29 01:44:37;;;;;;;12.25;6.53;;;;;;;;;;5056932;28;20028;-66
2022/09/29 01:47:20;;;;;;;11.10;6.18;;;;;;;;;;5050680;28;20055;-66
2022/09/29 01:49:49;;;;;;;11.18;6.32;;;;;;;;;;5050852;28;20043;-66
2022/09/29 01:52:20;;;;;;;12.82;6.55;;;;;;;;;;5058202;28;20020;-66
2022/09/29 01:54:55;;;;;;;16.63;7.13;;;;;;;;;;5056968;28;20016;-66
2022/09/29 01:57:25;;;;;;;12.80;6.25;;;;;;;;;;5060650;28;20548;-66
2022/09/29 02:00:00;;;;;;;8.30;5.65;;;;;;;;;;5053967;28;20850;-66
2022/09/29 02:02:45;;;;;;;10.45;6.72;;;;;;;;;;5054006;28;20028;-67
2022/09/29 02:05:31;;;;;;;11.38;6.25;;;;;;;;;;4989980;28;20032;-66
2022/09/29 02:08:01;;;;;;;10.00;6.45;;;;;;;;;;5059337;28;20033;-66
2022/09/29 02:10:28;;;;;;;11.20;6.25;;;;;;;;;;5053504;28;20032;-66
2022/09/29 02:12:55;;;;;;;10.70;6.55;;;;;;;;;;5054230;28;20036;-66
2022/09/29 02:15:25;;;;;;;15.25;6.03;;;;;;;;;;5050359;28;20462;-67
2022/09/29 02:17:52;;;;;;;13.00;7.43;;;;;;;;;;5060601;28;20016;-66
2022/09/29 02:20:18;;;;;;;17.67;6.15;;;;;;;;;;5060935;28;20028;-65
2022/09/29 02:22:43;;;;;;;16.30;6.93;;;;;;;;;;5056057;28;20017;-65
2022/09/29 02:25:10;;;;;;;14.27;7.38;;;;;;;;;;5054988;28;20396;-65
2022/09/29 02:27:35;;;;;;;13.75;7.10;;;;;;;;;;5059264;28;20046;-65
2022/09/29 02:30:01;;;;;;;15.13;7.63;;;;;;;;;;5059637;28;20469;-65
2022/09/29 02:32:27;;;;;;;15.30;7.82;;;;;;;;;;5054441;28;20551;-65
2022/09/29 02:34:53;;;;;;;14.52;7.60;;;;;;;;;;5051322;28;20031;-65
2022/09/29 02:37:21;;;;;;;13.68;6.90;;;;;;;;;;5071441;28;20021;-65
2022/09/29 02:39:46;;;;;;;12.93;7.72;;;;;;;;;;5059099;28;20415;-65
2022/09/29 02:42:24;;;;;;;13.43;7.25;;;;;;;;;;5062418;28;20024;-65
2022/09/29 02:45:12;;;;;;;11.88;7.15;;;;;;;;;;5057857;28;20278;-65
2022/09/29 02:47:54;;;;;;;15.38;7.68;;;;;;;;;;4994575;28;20122;-66
2022/09/29 02:50:22;;;;;;;15.27;7.75;;;;;;;;;;5064911;28;20016;-65
2022/09/29 02:53:03;;;;;;;19.88;7.43;;;;;;;;;;5057141;28;20107;-65
2022/09/29 02:55:40;;;;;;;12.93;8.18;;;;;;;;;;5044932;28;20009;-65
2022/09/29 02:58:14;;;;;;;14.38;7.60;;;;;;;;;;5058248;28;20031;-65
2022/09/29 03:00:40;;;;;;;13.05;7.22;;;;;;;;;;5036997;28;20033;-66
2022/09/29 03:03:05;;;;;;;15.32;7.93;;;;;;;;;;5064483;28;20046;-65
2022/09/29 03:05:30;;;;;;;15.73;8.50;;;;;;;;;;5059884;28;20028;-65
2022/09/29 03:07:55;;;;;;;14.48;8.35;;;;;;;;;;5050483;28;20282;-65
2022/09/29 03:10:20;;;;;;;16.63;8.35;;;;;;;;;;5032720;28;20024;-65
2022/09/29 03:12:46;;;;;;;17.20;8.00;;;;;;;;;;5033307;28;20021;-65
2022/09/29 03:15:11;;;;;;;16.48;9.02;;;;;;;;;;5060009;28;20274;-65
2022/09/29 03:17:37;;;;;;;13.57;8.30;;;;;;;;;;5060533;28;20290;-65
2022/09/29 03:20:02;;;;;;;18.38;9.20;;;;;;;;;;5058664;28;20100;-65
2022/09/29 03:22:28;;;;;;;15.40;8.48;;;;;;;;;;5057648;28;20094;-65
2022/09/29 03:24:53;;;;;;;23.80;8.47;;;;;;;;;;5033566;28;20028;-67
2022/09/29 03:27:18;;;;;;;17.05;8.77;;;;;;;;;;5065084;28;20266;-65
2022/09/29 03:29:43;;;;;;;15.02;8.70;;;;;;;;;;5029560;28;20869;-66
2022/09/29 03:32:09;;;;;;;19.05;8.00;;;;;;;;;;5056711;28;20036;-65
2022/09/29 03:34:35;;;;;;;12.75;7.68;;;;;;;;;;5057763;28;20108;-65
2022/09/29 03:37:00;;;;;;;18.52;9.82;;;;;;;;;;5067141;28;20082;-65
2022/09/29 03:39:26;;;;;;;15.53;8.37;;;;;;;;;;5052630;28;20035;-66
2022/09/29 03:41:51;;;;;;;15.30;8.75;;;;;;;;;;5049617;28;20341;-66
2022/09/29 03:44:16;;;;;;;15.88;8.70;;;;;;;;;;5051891;28;20021;-66
2022/09/29 03:46:41;;;;;;;14.18;8.45;;;;;;;;;;5064455;28;20024;-67
2022/09/29 03:49:08;;;;;;;16.90;9.00;;;;;;;;;;5050471;28;20035;-65
2022/09/29 03:51:34;;;;;;;15.10;9.68;;;;;;;;;;5055620;28;20024;-68
2022/09/29 03:53:59;;;;;;;18.33;9.43;;;;;;;;;;5054570;28;20409;-65
2022/09/29 03:56:24;;;;;;;18.17;9.13;;;;;;;;;;5048166;28;20017;-67
2022/09/29 03:58:49;;;;;;;27.43;9.10;;;;;;;;;;5045192;28;20340;-67
2022/09/29 04:01:14;;;;;;;17.03;9.20;;;;;;;;;;5049820;28;20362;-66
2022/09/29 04:03:39;;;;;;;15.67;8.93;;;;;;;;;;5055983;28;20335;-65
2022/09/29 04:06:05;;;;;;;13.13;8.23;;;;;;;;;;5054185;28;20314;-68
2022/09/29 04:08:30;;;;;;;15.55;8.93;;;;;;;;;;5056066;28;20443;-65
2022/09/29 04:10:55;;;;;;;15.25;7.97;;;;;;;;;;5040716;28;20021;-68
2022/09/29 04:13:20;;;;;;;15.30;8.90;;;;;;;;;;5049041;28;20024;-65
2022/09/29 04:15:46;;;;;;;15.15;8.32;;;;;;;;;;5046041;28;20021;-65
2022/09/29 04:18:12;;;;;;;17.30;8.13;;;;;;;;;;5054849;28;20016;-67
2022/09/29 04:20:37;;;;;;;14.80;8.52;;;;;;;;;;5048018;28;20047;-65
2022/09/29 04:23:03;;;;;;;21.90;9.10;;;;;;;;;;5057374;28;20025;-65
2022/09/29 04:25:28;;;;;;;14.23;8.05;;;;;;;;;;5042906;28;20032;-65
2022/09/29 04:27:53;;;;;;;16.20;7.80;;;;;;;;;;5052726;28;20028;-66
2022/09/29 04:30:19;;;;;;;18.20;8.30;;;;;;;;;;5059817;28;20095;-65
2022/09/29 04:32:59;;;;;;;;;;;;;;;;;;;;;
2022/09/29 04:35:42;;;;;;;14.38;7.18;;;;;;;;;;5044772;28;20037;-87
2022/09/29 04:38:49;;;;;;;14.45;8.40;;;;;;;;;;5042388;28;20025;-86
2022/09/29 04:41:40;;;;;;;24.83;8.45;;;;;;;;;;5052232;28;20047;-86
2022/09/29 04:44:51;;;;;;;16.38;9.13;;;;;;;;;;5051427;28;20021;-87
2022/09/29 04:47:30;;;;;;;19.52;10.82;;;;;;;;;;5035517;28;20561;-86
2022/09/29 04:50:14;;;;;;;17.17;8.77;;;;;;;;;;5035828;28;20109;-86
2022/09/29 04:53:10;;;;;;;27.70;11.70;;;;;;;;;;5052314;28;20021;-86
2022/09/29 04:55:55;;;;;;;15.55;8.10;;;;;;;;;;5039429;28;20013;-87
2022/09/29 04:58:21;;;;;;;17.50;8.70;;;;;;;;;;5033927;23;20044;-66
2022/09/29 05:00:46;;;;;;;18.75;8.95;;;;;;;;;;5050349;28;20055;-65
2022/09/29 05:03:11;;;;;;;22.65;10.55;;;;;;;;;;5048291;28;20056;-66
2022/09/29 05:05:36;;;;;;;23.70;10.30;;;;;;;;;;5050667;28;20024;-66
2022/09/29 05:08:05;;;;;;;20.92;11.00;;;;;;;;;;5047033;28;20358;-66
2022/09/29 05:10:31;;;;;;;20.15;10.82;;;;;;;;;;5055361;22;20543;-65
2022/09/29 05:12:56;;;;;;;24.80;11.23;;;;;;;;;;5033194;28;20026;-65
2022/09/29 05:15:21;;;;;;;22.08;11.50;;;;;;;;;;5031337;28;20362;-65
2022/09/29 05:17:47;;;;;;;18.35;10.60;;;;;;;;;;5028817;28;20722;-66
2022/09/29 05:20:12;;;;;;;21.85;11.13;;;;;;;;;;5030763;28;20063;-66
2022/09/29 05:22:37;;;;;;;18.95;10.00;;;;;;;;;;5029554;28;20018;-66
2022/09/29 05:25:03;;;;;;;20.58;11.30;;;;;;;;;;5030711;28;20029;-65
2022/09/29 05:27:28;;;;;;;22.60;10.45;;;;;;;;;;5030860;28;20022;-65
2022/09/29 05:29:53;;;;;;;19.90;10.73;;;;;;;;;;5027808;28;20025;-65
2022/09/29 05:32:18;;;;;;;25.93;9.97;;;;;;;;;;5027166;28;20671;-65
2022/09/29 05:34:44;;;;;;;26.75;11.60;;;;;;;;;;5028016;28;20284;-65
2022/09/29 05:37:09;;;;;;;20.40;9.93;;;;;;;;;;5025896;28;20104;-65
2022/09/29 05:39:36;;;;;;;19.70;9.77;;;;;;;;;;5028908;28;20385;-65
2022/09/29 05:42:01;;;;;;;20.00;10.63;;;;;;;;;;5028875;28;20036;-65
2022/09/29 05:44:27;;;;;;;19.30;8.52;;;;;;;;;;5031823;28;20444;-65
2022/09/29 05:46:52;;;;;;;15.38;8.13;;;;;;;;;;5030337;28;20104;-65
2022/09/29 05:49:18;;;;;;;18.17;9.02;;;;;;;;;;5027952;28;20515;-65
2022/09/29 05:51:43;;;;;;;20.95;9.38;;;;;;;;;;5028912;28;20506;-66
2022/09/29 05:54:08;;;;;;;21.07;10.50;;;;;;;;;;5029118;28;20021;-66
2022/09/29 05:56:33;;;;;;;15.17;8.30;;;;;;;;;;5027067;28;20271;-66
2022/09/29 05:59:00;;;;;;;16.73;8.33;;;;;;;;;;5027785;28;20271;-66
2022/09/29 06:01:25;;;;;;;15.77;8.10;;;;;;;;;;5028532;28;20272;-66
2022/09/29 06:03:54;;;;;;;15.35;7.90;;;;;;;;;;5030859;28;20108;-66
2022/09/29 06:06:24;;;;;;;19.75;8.55;;;;;;;;;;5026689;28;20034;-66
2022/09/29 06:08:49;;;;;;;18.63;8.80;;;;;;;;;;5024606;28;20438;-66
2022/09/29 06:11:19;;;;;;;25.75;8.32;;;;;;;;;;5030007;28;20057;-66
2022/09/29 06:13:45;;;;;;;15.85;7.45;;;;;;;;;;5025535;28;20034;-65
2022/09/29 06:16:11;;;;;;;14.35;7.97;;;;;;;;;;5026963;28;20036;-65
2022/09/29 06:18:36;;;;;;;13.75;7.80;;;;;;;;;;5031066;28;20013;-65
2022/09/29 06:21:02;;;;;;;13.77;7.18;;;;;;;;;;5029965;28;20036;-65
2022/09/29 06:23:28;;;;;;;13.95;7.07;;;;;;;;;;5027865;28;20025;-65
2022/09/29 06:25:57;;;;;;;15.38;7.72;;;;;;;;;;5024579;28;20649;-65
2022/09/29 06:28:22;;;;;;;17.02;7.82;;;;;;;;;;5029190;28;20029;-65
2022/09/29 06:30:47;;;;;;;14.93;7.30;;;;;;;;;;5036191;28;20048;-65
2022/09/29 06:33:12;;;;;;;12.52;8.27;;;;;;;;;;5035998;28;20481;-65
2022/09/29 06:38:21;;;;;;;14.85;7.35;;;;;;;;;;5029894;28;20033;-66
2022/09/29 06:40:47;;;;;;;10.98;6.93;;;;;;;;;;5031902;28;20030;-66
2022/09/29 06:43:12;;;;;;;20.43;7.80;;;;;;;;;;5031693;28;20431;-66
2022/09/29 06:45:37;;;;;;;15.73;8.45;;;;;;;;;;5029983;28;20277;-66
2022/09/29 06:48:02;;;;;;;10.57;6.97;;;;;;;;;;5030679;28;20048;-66
2022/09/29 06:50:28;;;;;;;9.35;6.32;;;;;;;;;;5035786;28;20720;-66
2022/09/29 06:52:53;;;;;;;9.73;5.87;;;;;;;;;;5029774;28;20021;-66
2022/09/29 06:55:18;;;;;;;11.48;6.57;;;;;;;;;;5031799;28;20756;-66
2022/09/29 06:57:44;;;;;;;11.30;5.78;;;;;;;;;;5040303;28;20013;-66
2022/09/29 07:00:10;;;;;;;8.88;5.47;;;;;;;;;;5037223;28;20385;-66
2022/09/29 07:02:35;;;;;;;9.70;5.60;;;;;;;;;;5016480;28;20077;-66
2022/09/29 07:05:00;;;;;;;7.80;4.23;;;;;;;;;;5031545;28;20563;-66
2022/09/29 07:07:25;;;;;;;8.07;5.00;;;;;;;;;;5028666;28;20299;-66
2022/09/29 07:09:50;;;;;;;13.73;4.90;;;;;;;;;;5009791;28;20371;-66
2022/09/29 07:12:16;;;;;;;9.73;4.77;;;;;;;;;;5029168;28;20319;-66
2022/09/29 07:14:41;;;;;;;5.97;4.38;;;;;;;;;;5026242;28;20327;-67
2022/09/29 07:17:08;;;;;;;7.53;4.57;;;;;;;;;;5026878;28;20026;-67
2022/09/29 07:19:33;;;;;;;5.00;4.35;;;;;;;;;;5030498;28;20299;-67
2022/09/29 07:21:58;;;;;;;10.45;4.38;;;;;;;;;;5037552;28;20025;-67
2022/09/29 07:24:24;;;;;;;7.32;3.83;;;;;;;;;;5028342;28;20021;-66
2022/09/29 07:26:49;;;;;;;7.57;3.80;;;;;;;;;;5027309;28;20061;-66
2022/09/29 07:29:15;;;;;;;5.95;4.35;;;;;;;;;;5029064;28;20029;-67
2022/09/29 07:31:40;;;;;;;7.63;4.07;;;;;;;;;;5010864;28;20027;-67
2022/09/29 07:34:05;;;;;;;4.60;3.65;;;;;;;;;;5028651;28;20021;-68
2022/09/29 07:36:32;;;;;;;5.97;4.05;;;;;;;;;;5026846;28;20017;-67
2022/09/29 07:38:57;;;;;;;5.40;4.10;;;;;;;;;;5029628;28;20029;-67
2022/09/29 07:41:22;;;;;;;8.02;3.38;;;;;;;;;;5027752;28;20067;-67
2022/09/29 07:43:48;;;;;;;5.97;3.80;;;;;;;;;;5028263;28;20060;-67
2022/09/29 07:46:13;;;;;;;7.05;4.00;;;;;;;;;;5034862;28;20116;-67
2022/09/29 07:48:38;;;;;;;5.72;3.63;;;;;;;;;;5030624;28;20025;-66
2022/09/29 07:51:08;;;;;;;12.68;4.22;;;;;;;;;;5028254;28;20017;-70
2022/09/29 07:53:35;;;;;;;4.32;3.50;;;;;;;;;;5028553;28;20014;-68
2022/09/29 07:56:04;;;;;;;7.93;3.50;;;;;;;;;;5027850;28;20028;-70
2022/09/29 07:58:31;;;;;;;4.80;3.17;;;;;;;;;;5038173;28;20474;-67
2022/09/29 08:00:56;;;;;;;5.70;3.58;;;;;;;;;;5025937;28;20021;-66
2022/09/29 08:03:24;;;;;;;6.05;3.13;;;;;;;;;;5028016;28;20660;-68
2022/09/29 08:05:50;;;;;;;11.70;3.70;;;;;;;;;;5027922;28;20053;-67
2022/09/29 08:08:15;;;;;;;3.63;3.13;;;;;;;;;;5029986;28;20071;-68
2022/09/29 08:10:40;;;;;;;4.97;3.60;;;;;;;;;;5028042;28;20023;-67
2022/09/29 08:13:06;;;;;;;7.77;3.57;;;;;;;;;;5031603;28;20558;-67
2022/09/29 08:15:31;;;;;;;6.47;3.40;;;;;;;;;;5031579;28;20272;-66
2022/09/29 08:17:56;;;;;;;7.67;2.47;;;;;;;;;;5037187;28;20315;-66
2022/09/29 08:20:21;;;;;;;5.75;2.72;;;;;;;;;;5029275;28;20302;-67
2022/09/29 08:22:47;;;;;;;7.90;3.58;;;;;;;;;;5031622;28;20028;-67
2022/09/29 08:25:13;;;;;;;6.15;2.83;;;;;;;;;;5026839;28;20014;-69
2022/09/29 08:27:38;;;;;;;7.18;3.35;;;;;;;;;;5027056;28;20398;-68
2022/09/29 08:30:04;;;;;;;8.30;2.77;;;;;;;;;;5036050;28;20028;-67
2022/09/29 08:32:29;;;;;;;4.82;3.08;;;;;;;;;;5041192;28;20044;-67
2022/09/29 08:34:55;;;;;;;4.35;3.00;;;;;;;;;;5030226;28;20112;-68
2022/09/29 08:37:20;;;;;;;5.03;3.20;;;;;;;;;;5024013;28;20024;-66
2022/09/29 08:39:45;;;;;;;11.95;3.60;;;;;;;;;;5011594;28;20446;-67
2022/09/29 08:42:15;;;;;;;5.83;3.23;;;;;;;;;;5028971;28;20429;-66
2022/09/29 08:44:46;;;;;;;7.50;3.30;;;;;;;;;;5029355;28;20283;-66
2022/09/29 08:47:14;;;;;;;9.68;3.40;;;;;;;;;;5027865;28;20014;-68
2022/09/29 08:49:41;;;;;;;9.52;3.85;;;;;;;;;;5025301;28;20359;-66
2022/09/29 08:52:12;;;;;;;9.98;3.83;;;;;;;;;;5026719;28;20033;-66
2022/09/29 08:54:39;;;;;;;4.97;3.67;;;;;;;;;;5028440;28;20020;-67
2022/09/29 08:57:05;;;;;;;5.72;3.90;;;;;;;;;;5028232;28;20431;-67
2022/09/29 08:59:31;;;;;;;6.82;3.55;;;;;;;;;;5032205;28;20049;-66
2022/09/29 09:01:56;;;;;;;6.18;3.00;;;;;;;;;;5018059;28;20032;-66
2022/09/29 09:04:34;;;;;;;8.27;3.17;;;;;;;;;;5031008;28;20056;-67
2022/09/29 09:07:20;;;;;;;5.15;3.22;;;;;;;;;;5025994;28;20044;-68
2022/09/29 09:09:48;;;;;;;7.03;2.90;;;;;;;;;;5027058;28;20088;-66
2022/09/29 09:12:24;;;;;;;8.23;2.88;;;;;;;;;;5027042;28;20033;-67
2022/09/29 09:15:13;;;;;;;11.32;3.65;;;;;;;;;;5031944;28;20465;-66
2022/09/29 09:17:38;;;;;;;12.27;2.90;;;;;;;;;;5031956;28;20032;-66
2022/09/29 09:20:23;;;;;;;5.47;2.97;;;;;;;;;;5010879;28;20029;-67
2022/09/29 09:23:05;;;;;;;6.13;3.65;;;;;;;;;;5038460;28;20040;-67
2022/09/29 09:25:32;;;;;;;5.88;2.97;;;;;;;;;;5028265;28;20026;-67
2022/09/29 09:28:03;;;;;;;11.10;2.97;;;;;;;;;;5029609;28;20033;-68
2022/09/29 09:30:33;;;;;;;5.53;3.20;;;;;;;;;;5026446;28;20425;-67
2022/09/29 09:33:00;;;;;;;6.72;3.58;;;;;;;;;;5033300;28;20053;-66
2022/09/29 09:35:33;;;;;;;10.25;3.00;;;;;;;;;;5031974;28;20102;-66
2022/09/29 09:38:01;;;;;;;5.70;3.10;;;;;;;;;;5030292;28;20029;-66
2022/09/29 09:40:29;;;;;;;6.03;3.00;;;;;;;;;;5030061;28;20026;-68
2022/09/29 09:43:03;;;;;;;13.68;2.85;;;;;;;;;;5032941;28;20022;-67
2022/09/29 09:45:31;;;;;;;6.03;3.13;;;;;;;;;;5032171;28;20022;-67
2022/09/29 09:48:05;;;;;;;6.20;3.10;;;;;;;;;;5017094;28;20120;-68
2022/09/29 09:50:30;;;;;;;7.72;2.95;;;;;;;;;;5032580;28;20307;-66
2022/09/29 09:52:58;;;;;;;6.25;2.88;;;;;;;;;;5048695;28;20103;-66
2022/09/29 09:55:24;;;;;;;4.85;3.10;;;;;;;;;;5033448;28;20341;-67
2022/09/29 09:57:51;;;;;;;5.05;3.22;;;;;;;;;;5033152;28;20104;-66
2022/09/29 10:00:29;;;;;;;5.25;2.83;;;;;;;;;;5032639;28;20039;-66
2022/09/29 10:02:55;;;;;;;10.93;3.22;;;;;;;;;;5031408;28;20017;-66
2022/09/29 10:05:29;;;;;;;7.32;3.15;;;;;;;;;;5023304;28;20112;-66
2022/09/29 10:07:54;;;;;;;4.75;3.22;;;;;;;;;;5033833;28;20497;-67
2022/09/29 10:10:20;;;;;;;4.95;3.10;;;;;;;;;;5035387;28;20021;-66
2022/09/29 10:12:46;;;;;;;5.78;2.92;;;;;;;;;;5030867;28;20045;-70
2022/09/29 10:15:16;;;;;;;4.43;2.88;;;;;;;;;;5029520;28;20021;-67
2022/09/29 10:17:44;;;;;;;6.85;2.80;;;;;;;;;;5032376;28;20016;-67
2022/09/29 10:20:09;;;;;;;13.27;3.40;;;;;;;;;;5029777;28;20028;-67
2022/09/29 10:22:34;;;;;;;7.20;3.20;;;;;;;;;;5030620;28;20400;-67
2022/09/29 10:25:14;;;;;;;6.38;3.90;;;;;;;;;;5029017;28;20049;-67
2022/09/29 10:27:41;;;;;;;4.77;3.57;;;;;;;;;;5027585;28;20026;-68
2022/09/29 10:30:15;;;;;;;12.57;5.32;;;;;;;;;;5032043;28;20071;-67
2022/09/29 10:32:43;;;;;;;10.20;4.43;;;;;;;;;;5023993;28;20056;-67
2022/09/29 10:35:21;;;;;;;12.88;4.25;;;;;;;;;;5030778;28;20041;-70
2022/09/29 10:37:47;;;;;;;6.53;4.25;;;;;;;;;;5036386;28;20052;-71
2022/09/29 10:40:16;;;;;;;8.65;3.95;;;;;;;;;;5029895;28;20045;-67
2022/09/29 10:42:45;;;;;;;8.38;4.68;;;;;;;;;;5028364;28;20017;-69
2022/09/29 10:45:14;;;;;;;6.57;4.25;;;;;;;;;;5028822;28;20024;-70
2022/09/29 10:47:41;;;;;;;8.88;3.50;;;;;;;;;;5026694;28;20489;-67
2022/09/29 10:50:21;;;;;;;8.55;4.53;;;;;;;;;;5030131;28;20041;-69
2022/09/29 10:52:49;;;;;;;11.50;4.68;;;;;;;;;;5026800;28;20037;-69
2022/09/29 10:55:19;;;;;;;11.35;4.40;;;;;;;;;;5030288;28;20650;-67
2022/09/29 10:57:45;;;;;;;7.22;4.72;;;;;;;;;;5028531;28;20020;-67
2022/09/29 11:00:30;;;;;;;11.07;3.97;;;;;;;;;;5024019;28;20030;-67
2022/09/29 11:03:04;;;;;;;12.90;3.45;;;;;;;;;;5030147;28;20429;-68
2022/09/29 11:05:30;;;;;;;9.25;3.88;;;;;;;;;;5031283;28;20030;-69
2022/09/29 11:07:55;;;;;;;11.70;4.03;;;;;;;;;;5034725;28;20048;-69
2022/09/29 11:10:31;;;;;;;8.70;3.95;;;;;;;;;;5035285;28;20024;-68
2022/09/29 11:12:59;;;;;;;5.20;3.22;;;;;;;;;;5086775;22;20409;-62
2022/09/29 11:15:37;;;;;;;8.70;3.10;;;;;;;;;;5048185;28;20021;-62
2022/09/29 11:18:16;;;;;;;9.32;3.70;;;;;;;;;;5046397;28;20055;-65
2022/09/29 11:20:41;;;;;;;10.70;2.85;;;;;;;;;;5045581;28;20047;-65
2022/09/29 11:23:12;;;;;;;8.73;3.63;;;;;;;;;;5057610;28;20432;-65
2022/09/29 11:25:37;;;;;;;7.03;3.25;;;;;;;;;;5045987;28;20017;-65
2022/09/29 11:28:05;;;;;;;8.63;3.03;;;;;;;;;;5049046;28;20017;-65
2022/09/29 11:30:54;;;;;;;6.57;2.90;;;;;;;;;;5027019;28;20430;-65
2022/09/29 11:33:34;;;;;;;5.93;2.47;;;;;;;;;;5006429;28;20025;-65
2022/09/29 11:36:00;;;;;;;6.22;3.42;;;;;;;;;;5044961;28;20481;-65
2022/09/29 11:38:44;;;;;;;6.65;3.70;;;;;;;;;;5050675;28;20062;-65
2022/09/29 11:41:44;;;;;;;3.28;1.65;;;;;;;;;;5049389;28;20396;-65
2022/09/29 11:44:34;;;;;;;5.95;2.53;;;;;;;;;;4973364;28;20033;-65
2022/09/29 11:47:13;;;;;;;3.65;1.85;;;;;;;;;;5044567;28;20043;-65
2022/09/29 11:49:58;;;;;;;4.80;1.75;;;;;;;;;;5048353;28;20493;-65
2022/09/29 11:52:23;;;;;;;3.67;2.40;;;;;;;;;;5026001;28;20037;-65
2022/09/29 11:55:01;;;;;;;10.32;2.65;;;;;;;;;;5047499;28;20111;-65
2022/09/29 11:57:26;;;;;;;3.65;2.20;;;;;;;;;;5042363;28;20083;-65
2022/09/29 12:00:12;;;;;;;4.65;1.88;;;;;;;;;;5046931;28;20028;-65
2022/09/29 12:02:40;;;;;;;5.57;1.83;;;;;;;;;;5045107;28;20021;-65
2022/09/29 12:05:15;;;;;;;2.60;1.02;;;;;;;;;;5051174;28;20049;-65
2022/09/29 12:07:46;;;;;;;6.93;1.40;;;;;;;;;;5046173;28;20021;-65
2022/09/29 12:10:29;;;;;;;6.18;1.42;;;;;;;;;;5045753;28;20070;-65
2022/09/29 12:12:55;;;;;;;4.68;1.40;;;;;;;;;;5050249;28;20025;-65
2022/09/29 12:15:39;;;;;;;3.50;1.30;;;;;;;;;;5046410;28;20028;-65
2022/09/29 12:18:10;;;;;;;3.00;1.02;;;;;;;;;;5046205;28;20074;-65
2022/09/29 12:20:36;;;;;;;1.27;0.70;;;;;;;;;;5042796;28;20039;-65
2022/09/29 12:23:04;;;;;;;4.95;1.20;;;;;;;;;;5051562;28;20025;-65
2022/09/29 12:25:32;;;;;;;7.07;1.00;;;;;;;;;;5043582;28;20624;-65
2022/09/29 12:28:11;;;;;;;3.85;1.30;;;;;;;;;;5046661;28;20067;-65
2022/09/29 12:30:42;;;;;;;4.82;1.83;;;;;;;;;;5047861;28;20033;-65
2022/09/29 12:33:21;;;;;;;2.08;0.98;;;;;;;;;;5049468;28;20032;-65
2022/09/29 12:35:52;;;;;;;2.40;1.20;;;;;;;;;;5044086;28;20350;-65
2022/09/29 12:38:21;;;;;;;6.40;1.70;;;;;;;;;;5045328;28;20021;-65
2022/09/29 12:40:59;;;;;;;2.17;1.08;;;;;;;;;;5046886;28;20098;-65
2022/09/29 12:43:29;;;;;;;2.83;1.40;;;;;;;;;;5043784;28;20529;-65
2022/09/29 12:46:03;;;;;;;3.50;1.27;;;;;;;;;;5048308;28;20659;-65
2022/09/29 12:48:41;;;;;;;4.00;1.27;;;;;;;;;;5050671;28;20029;-65
2022/09/29 12:51:08;;;;;;;6.63;1.58;;;;;;;;;;5051938;28;20059;-65
2022/09/29 12:53:37;;;;;;;3.58;1.40;;;;;;;;;;5054408;28;20507;-65
2022/09/29 12:56:16;;;;;;;5.82;1.38;;;;;;;;;;5051465;28;20040;-65
2022/09/29 12:58:48;;;;;;;7.33;1.73;;;;;;;;;;5051372;28;20021;-65
2022/09/29 13:01:20;;;;;;;4.47;1.80;;;;;;;;;;5055617;28;20016;-65
2022/09/29 13:04:11;;;;;;;3.85;1.92;;;;;;;;;;5049788;28;20423;-65
2022/09/29 13:06:55;;;;;;;5.78;1.40;;;;;;;;;;5050322;28;20041;-65
2022/09/29 13:09:46;;;;;;;7.82;1.70;;;;;;;;;;5054988;28;20021;-65
2022/09/29 13:12:11;;;;;;;3.67;1.50;;;;;;;;;;5053808;28;20028;-65
2022/09/29 13:14:39;;;;;;;4.47;1.53;;;;;;;;;;5049030;28;20144;-65
2022/09/29 13:17:07;;;;;;;3.70;1.30;;;;;;;;;;5049372;28;20021;-65
2022/09/29 13:19:41;;;;;;;12.45;1.45;;;;;;;;;;5050572;28;20032;-65
2022/09/29 13:22:20;;;;;;;5.18;1.40;;;;;;;;;;5050451;28;20024;-65
2022/09/29 13:24:54;;;;;;;5.38;2.83;;;;;;;;;;5049031;28;20104;-65
2022/09/29 13:27:31;;;;;;;4.20;1.40;;;;;;;;;;5048702;28;20017;-65
2022/09/29 13:30:00;;;;;;;6.43;1.38;;;;;;;;;;5057114;28;20155;-65
2022/09/29 13:32:26;;;;;;;6.17;1.53;;;;;;;;;;5053327;28;20036;-65
2022/09/29 13:34:53;;;;;;;4.88;1.63;;;;;;;;;;5045604;28;20025;-65
2022/09/29 13:37:20;;;;;;;3.58;1.60;;;;;;;;;;5053934;28;20021;-65
2022/09/29 13:39:53;;;;;;;2.90;1.67;;;;;;;;;;5057610;28;20020;-65
2022/09/29 13:42:37;;;;;;;5.53;1.70;;;;;;;;;;5035390;28;20052;-65
2022/09/29 13:45:14;;;;;;;4.60;1.73;;;;;;;;;;5051420;28;20389;-65
2022/09/29 13:47:44;;;;;;;4.47;1.90;;;;;;;;;;5052580;28;20036;-65
2022/09/29 13:50:28;;;;;;;6.43;1.80;;;;;;;;;;5058001;28;20171;-65
2022/09/29 13:52:53;;;;;;;5.88;2.22;;;;;;;;;;5052470;28;20029;-65
2022/09/29 13:55:51;;;;;;;2.97;1.70;;;;;;;;;;5052366;28;20363;-66
2022/09/29 13:58:27;;;;;;;4.95;2.15;;;;;;;;;;5006140;28;20037;-65
2022/09/29 14:00:53;;;;;;;9.55;2.15;;;;;;;;;;5053310;28;20546;-65
2022/09/29 14:03:35;;;;;;;5.93;2.85;;;;;;;;;;5049162;28;20111;-65
2022/09/29 14:06:05;;;;;;;4.13;2.03;;;;;;;;;;5056700;28;20024;-65
2022/09/29 14:08:36;;;;;;;4.90;2.47;;;;;;;;;;5045981;28;20633;-65
2022/09/29 14:11:01;;;;;;;;;;;;;;;;;;5058075;28;20037;-65
2022/09/29 14:13:40;;;;;;;6.57;1.85;;;;;;;;;;5050858;28;19920;-63
2022/09/29 14:16:09;;;;;;;3.63;2.08;;;;;;;;;;5050603;28;21226;-63
2022/09/29 14:18:40;;;;;;;6.75;1.50;;;;;;;;;;5048855;28;20100;-63
2022/09/29 14:21:32;;;;;;;5.30;1.90;;;;;;;;;;5047345;28;20200;-64
2022/09/29 14:23:57;;;;;;;4.22;2.10;;;;;;;;;;5047927;28;20020;-64
2022/09/29 14:26:41;;;;;;;4.63;1.70;;;;;;;;;;5046771;28;20032;-64
2022/09/29 14:29:25;;;;;;;9.77;1.77;;;;;;;;;;5049731;28;20385;-64
2022/09/29 14:31:53;;;;;;;4.75;1.77;;;;;;;;;;5046353;28;20103;-64
2022/09/29 14:34:19;;;;;;;2.70;1.60;;;;;;;;;;5048064;28;20009;-64
2022/09/29 14:36:46;;;;;;;6.85;2.35;;;;;;;;;;5049492;28;20020;-64
2022/09/29 14:39:12;;;;;;;5.57;1.95;;;;;;;;;;5050448;28;20017;-63
2022/09/29 14:41:41;;;;;;;4.22;1.77;;;;;;;;;;5045401;28;20020;-63
2022/09/29 14:44:19;;;;;;;5.45;1.90;;;;;;;;;;5047799;28;20025;-63
2022/09/29 14:52:40;;;;;;;5.82;1.80;;;;;;;;;;5045340;28;20472;-63
2022/09/29 14:55:17;;;;;;;2.92;1.67;;;;;;;;;;5045705;28;20016;-63
2022/09/29 14:57:51;;;;;;;4.47;1.90;;;;;;;;;;5045661;28;20079;-64
2022/09/29 15:00:27;;;;;;;6.15;2.13;;;;;;;;;;5028885;28;20017;-64
2022/09/29 15:02:54;;;;;;;9.77;2.28;;;;;;;;;;5042259;28;20025;-64